Terminal Aerodrome Forecast
Issued by NWS

Home | Current Version | Previous Version | Text Only | Print | Product List | Glossary On
Versions: 1 2 3 4 5 6 7 8 9 10 11 12 13 14 15 16 17 18
000
FTUS41 KCAR 300520
TAFBHB
TAF
KBHB 300520Z 3006/3106 00000KT P6SM SKC
     FM301200 14009KT 5SM -SN BKN009 OVC030
     FM301500 14007KT 1/2SM SN FG OVC004
     FM301800 12008KT 1/4SM +SNRA FG VV002
      AMD LTD TO CLD VIS AND WIND=

USA.gov is the U.S. government's official web portal to all federal, state and local government web resources and services.